Slippery Rock, Pennsylvania
Current Conditions -  °F | °C
As of 2:55 AM on Sunday 26 Oct 2014 (Local Time) from KBTP Reporting Station
Clear Clear  
Wind Chill: 52°   Ceiling: Unl
Heat Index: 52°   Visibility: 10mi
Dew Point: 30°   Wind: 3mph
Humidity: 44%   Direction: 260°W
Pressure: 29.8"   Gusts: NA
Location:  41.06°N, 80.06°W
Report Text: KBTP 260655Z AUTO 26003KT 10SM CLR 11/M01 A2980 RMK AO1
Loading
Personal Weather Stations






























Interactive Weather Map
Tropical Storm Tracking
New forecast layout! Learn more

10-Day Weather Forecast

Advertisements
Track Severe Weather on mobile